Marla, Australia
Current Conditions -  °F | °C
As of 6:00 PM on Thursday 27 Nov 2014 (Local Time) from YCBP Reporting Station
Clear Clear  
Wind Chill: 91°   Ceiling: Unl
Heat Index: 91°   Visibility: NA
Dew Point: 21°   Wind: 7mph
Humidity: 8%   Direction: 100°E
Pressure: 29.97"   Gusts: NA
Location:  27.31°S, 133.62°E
Report Text: YCBP 270800Z AUTO 10006KT //// // NCD 33/M06 Q1015
Loading
Personal Weather Stations






























Interactive Weather Map New forecast layout! Learn more

10-Day Weather Forecast

Advertisements
Track Severe Weather on mobile